Terminal Aerodrome Forecast
Issued by NWS

Home | Current Version | Previous Version | Text Only | Print | Product List | Glossary On
Versions: 1 2 3 4 5 6 7 8 9 10 11 12 13
000
FTUS44 KLZK 242332
TAFLLQ
TAF
KLLQ 242332Z 2500/2524 19007KT P6SM FEW030 SCT100 BKN250
     FM250300 17005KT P6SM SCT100 BKN250
     FM251000 18005KT 6SM BR OVC015
     FM251500 19010KT P6SM BKN035 BKN250
     FM251800 18008G15KT P6SM VCTS BKN030CB OVC250=

USA.gov is the U.S. government's official web portal to all federal, state and local government web resources and services.